EBDT

Schaffen Airport

Diest, Belgium
METAR EBDT 170725Z AUTO 27009KT 6000 NCD 01/01 Q1023 WHT
Observed Flight Rules
Dec-17 @ 07:25 UTC (50 minutes ago) Marginal Visual Flight Rules
Wind Visibility Clouds
270° at 9 knots 6,003 meters
  • Clear skies
Temperatures Readings
Current 1°C / 34°F
Dewpoint 1°C / 34°F
Humidity 100%
Altimeter 30.21" Hg
Pressure 1023 hPa
Elevation 54
METAR EBDT 170725Z AUTO 27009KT 6000 NCD 01/01 Q1023 WHT
Observed Flight Rules
Dec-17 @ 07:25 UTC
(50 minutes ago)
MVFR
Wind Visibility
270° at 9 knots 6,003 meters
Clouds
  • Clear skies
Temperature Dewpoint
1°C / 34°F 1°C / 34°F
Humidity Altimeter Pressure
100% 30.21" Hg 1023 hPa